Карточка аэропорта UWLW

Внимание!
Информация на этой странице в стадии наполнения.
Если вы не увидели какой-то информации, или заметили неточность - пожалуйста сообщите нам!
Спасибо!
Команда RU-STAFF
Название аэропортаВосточный
Название аэропорта (англ.)Vostochny
Превышение252 ft. (76.8 m.)
Координаты54°24', 48°48'
Высота перехода900m
Эшелон переходаQFE>=726mm:FL050; QFE<726:FL060
Коды ответчика6725-6727
Зона ОрВДСамара РПИ (UWWW)
Данные METARUWLW 211700Z 26002MPS 230V330 9999 SCT049CB 16/14 Q1016 R20/290250 NOSIG RMK QFE757/1009
Проноз погоды (TAF)UWLW 211359Z 2115/2215 29005G10MPS 9999 SCT030 TX20/2115Z TN10/2202Z TEMPO 2115/2118 32008G15MPS 2100 -TSRA BKN016CB BECMG 2118/2119 01003MPS TEMPO 2200/2209 04007G14MPS 6000 -SHRA BKN016CB
NOTAMshow/hide NOTAM
AWOS   TABLE

Информация о ВПП

ВПП Длина ВПП (м.) Покрытие Курс ВПП Частота ILS
025000Железобетон20110.1
205000Железобетон200110.1

Диспетчерские позиции


Сценарии



Спутниковое изображение